Main page
METAR-TAF:

METAR-TAF

Airports :

Guaraní International Airport

Ciudad Del Este, Paraguay

latitude: 25-27-20S, longitude: 054-50-37W, elevation: 257 m

Current weather observation

The report was made 16 minutes ago, at 04:00 UTC
Wind 3 kt from the Southeast
Temperature 18°C
Humidity 56%
Pressure 1012 hPa
Visibility 10 km or more
no clouds below 1500 m and no cumulonimbus

METAR: SGES 260400Z 14003KT CAVOK 18/09 Q1012

Time: 00:16 (04:16 UTC)

Forecast

The report was made 5 hours and 36 minutes ago, at 22:40 UTC
Forecast valid from 26 at 00 UTC to 27 at 00 UTC
Wind 5 kt from variable directions
Visibility 10 km or more
no clouds below 1500 m and no cumulonimbus

TAF: SGES 252240Z 2600/2700 VRB05KT CAVOK TX34/2619Z TN16/2610Z

Weather observations and forecasts of more than 4000 airports (METAR and TAF reports).

The available stations are represented by yellow and red dots on the map.

Hover mouse over dot to see the name of the station.

Then click to see weather observations and forecasts.

To change the map : click on the green buttons with a black cross to zoom in, on the green button with a dash to zoom out, or on the green arrows for adjacent maps.


METAR-TAF: